Portada
METAR-TAF:

METAR-TAF

Aeropuertos :

Aeropuerto de Tetuán-Sania Ramel

Tetuán, Marruecos

latitud: 35-35N, longitud: 005-20W, altitud: 10 m

Observación

El informe se hizo hace 14 minutos, a las 09:00 UTC
Viento 14 kt del oeste-suroeste, variando entre suroeste y oeste
Temperatura 22°C
Humedad 60%
Presión 1019 hPa
Visibilidad 10 km o más
Escasas nubes a una altura de 1600 ft

METAR: GMTN 130900Z 25014KT 220V280 9999 FEW016 22/14 Q1019 NOSIG

Hora: 09:14 (09:14 UTC)


TAF: falta

Observaciones y pronósticos meteorológicos de más de 4000 aeropuertos (mensajes METAR y TAF).

Los puntos amarillos y rojos representan las estaciones disponibles.

Ponga el ratón en el punto deseado para ver el nombre de la estación.

Haga clic para ver las observaciones y los pronósticos meteorológicos.

Para cambiar el mapa : haga clic en los botones verdes con una cruz de color negro para hacer un zoom, en el botón verde con un guión para alejar o en las flechas verdes para mapas adyacentes.


METAR-TAF: